Storm Events Database

Event Details

Event Hail
Magnitude 1.00 in.
State TEXAS
County/Area COLLIN
WFO FWD
Report Source CoCoRaHS
NCDC Data Source CSV
Begin Date 2011-09-18 18:25:00.0 CST-6
Begin Location 3SW MCKINNEY
Begin Lat/Lon 33.17/-96.66
End Date 2011-09-18 18:25:00.0 CST-6
Deaths Direct/Indirect 0/0 (fatality details below, when available...)
Injuries Direct/Indirect 0/0
Property Damage 0.00K
Crop Damage 0.00K
Episode Narrative A southward moving cold front and an upper level trough combined to aid in the development of a line of severe thunderstorms that primarily affected locations east of Interstate 35. Damaging winds up to 60 mph were the main hazard with this event, but there were also several reports of hail up to the size of golfballs. The damage associated with the high winds was primarily to trees and power lines.
Event Narrative


     ‚Äč



All events for this episode:

Location County/Zone St. Date Time T.Z. Type Mag Dth Inj PrD CrD
Totals: 0 0 125.00K 0.00K
CALLISBURG COOKE CO. TX 09/18/2011 15:40 CST-6 Hail 0.88 in. 0 0 0.00K 0.00K
WOODBINE COOKE CO. TX 09/18/2011 15:41 CST-6 Hail 0.75 in. 0 0 0.00K 0.00K
WOODBINE COOKE CO. TX 09/18/2011 15:58 CST-6 Hail 1.75 in. 0 0 5.00K 0.00K
POTTSBORO GRAYSON CO. TX 09/18/2011 16:15 CST-6 Hail 0.88 in. 0 0 0.00K 0.00K
RUCKER COMANCHE CO. TX 09/18/2011 16:33 CST-6 Hail 0.88 in. 0 0 0.00K 0.00K
AMBROSE GRAYSON CO. TX 09/18/2011 17:02 CST-6 Thunderstorm Wind 50 kts. EG 0 0 0.00K 0.00K
HOWE GRAYSON CO. TX 09/18/2011 17:20 CST-6 Hail 1.00 in. 0 0 0.00K 0.00K
VAN ALSTYNE GRAYSON CO. TX 09/18/2011 17:50 CST-6 Hail 1.00 in. 0 0 0.00K 0.00K
PROSPER COLLIN CO. TX 09/18/2011 18:05 CST-6 Hail 1.00 in. 0 0 0.00K 0.00K
CUMBY HOPKINS CO. TX 09/18/2011 18:25 CST-6 Hail 0.88 in. 0 0 0.00K 0.00K
MCKINNEY COLLIN CO. TX 09/18/2011 18:25 CST-6 Hail 1.00 in. 0 0 0.00K 0.00K
POINT RAINS CO. TX 09/18/2011 18:32 CST-6 Hail 1.00 in. 0 0 0.00K 0.00K
MCKINNEY COLLIN CO. TX 09/18/2011 18:38 CST-6 Hail 1.25 in. 0 0 0.00K 0.00K
WESTMINSTER COLLIN CO. TX 09/18/2011 18:45 CST-6 Thunderstorm Wind 52 kts. EG 0 0 15.00K 0.00K
PLANO COLLIN CO. TX 09/18/2011 19:01 CST-6 Hail 1.00 in. 0 0 0.00K 0.00K
MURPHY COLLIN CO. TX 09/18/2011 19:10 CST-6 Thunderstorm Wind 61 kts. EG 0 0 15.00K 0.00K
EMBLEM HOPKINS CO. TX 09/18/2011 19:15 CST-6 Thunderstorm Wind 52 kts. EG 0 0 0.00K 0.00K
BOUCHARD DALLAS CO. TX 09/18/2011 19:31 CST-6 Hail 1.25 in. 0 0 0.00K 0.00K
REINHARDT DALLAS CO. TX 09/18/2011 19:37 CST-6 Hail 1.00 in. 0 0 0.00K 0.00K
MILLER GROVE HOPKINS CO. TX 09/18/2011 19:38 CST-6 Thunderstorm Wind 52 kts. EG 0 0 0.00K 0.00K
GARLAND DALLAS CO. TX 09/18/2011 19:42 CST-6 Hail 2.00 in. 0 0 15.00K 0.00K
BOUCHARD DALLAS CO. TX 09/18/2011 19:45 CST-6 Hail 1.75 in. 0 0 10.00K 0.00K
SULPHUR SPGS HOPKINS CO. TX 09/18/2011 19:55 CST-6 Thunderstorm Wind 52 kts. EG 0 0 2.00K 0.00K
WILLS PT VAN ZANDT CO. TX 09/18/2011 20:15 CST-6 Thunderstorm Wind 52 kts. EG 0 0 0.00K 0.00K
FLORENCE HILL DALLAS CO. TX 09/18/2011 20:20 CST-6 Thunderstorm Wind 52 kts. EG 0 0 0.00K 0.00K
SEAGOVILLE DALLAS CO. TX 09/18/2011 20:22 CST-6 Thunderstorm Wind 61 kts. EG 0 0 0.00K 0.00K
DE SOTO DALLAS CO. TX 09/18/2011 20:35 CST-6 Hail 1.00 in. 0 0 0.00K 0.00K
DE SOTO CARROLL ARPT DALLAS CO. TX 09/18/2011 20:35 CST-6 Thunderstorm Wind 61 kts. EG 0 0 50.00K 0.00K
MIDLOTHIAN ELLIS CO. TX 09/18/2011 20:35 CST-6 Thunderstorm Wind 52 kts. EG 0 0 0.00K 0.00K
FERRIS ELLIS CO. TX 09/18/2011 20:44 CST-6 Hail 0.75 in. 0 0 0.00K 0.00K
CLIFTON BOSQUE CO. TX 09/18/2011 21:00 CST-6 Thunderstorm Wind 50 kts. EG 0 0 0.00K 0.00K
WAXAHACHIE ELLIS CO. TX 09/18/2011 21:03 CST-6 Thunderstorm Wind 52 kts. EG 0 0 0.00K 0.00K
BLUM HILL CO. TX 09/18/2011 21:05 CST-6 Thunderstorm Wind 52 kts. EG 0 0 0.00K 0.00K
CEDAR CREEK RES NORT HENDERSON CO. TX 09/18/2011 21:15 CST-6 Thunderstorm Wind 52 kts. EG 0 0 0.00K 0.00K
MAYPEARL ELLIS CO. TX 09/18/2011 21:25 CST-6 Thunderstorm Wind 52 kts. EG 0 0 10.00K 0.00K
OSCEOLA HILL CO. TX 09/18/2011 21:30 CST-6 Thunderstorm Wind 54 kts. EG 0 0 0.00K 0.00K
SINGISER HILL CO. TX 09/18/2011 21:40 CST-6 Thunderstorm Wind 54 kts. EG 0 0 0.00K 0.00K
BARRY NAVARRO CO. TX 09/18/2011 22:15 CST-6 Hail 1.75 in. 0 0 3.00K 0.00K
MARLIN FALLS CO. TX 09/18/2011 23:30 CST-6 Thunderstorm Wind 52 kts. EG 0 0 0.00K 0.00K
Totals: 0 0 125.00K 0.00K